Capital Region International Airport

Airport
ICAO code: 
KLAN
Summary
ICAO Region: 
NAM
Territory: 
Location: 
Lansing, Michigan,
Coordinates: 
Aerial View: 
42° 46' 29.715" N, 84° 35' 21.812" W
Airport CFIT: 
Altimeter Temperature Error Correction
Airport LOS: 
Parallel Runway Operation
Airport WX: 
Cumulonimbus
Metar
Observation
KLAN 011353Z 17007KT 10SM OVC075 01/M03 A3005 RMK AO2 SLP184 T00111028
Station
Lansing, Capital City Airport
Date/Time
2021-12-01 13:53:00
Wind direction
170°
Wind speed
07 kts
Lowest cloud amount
overcast
Temperature
1.1°C
Dew point
-2.8°C
Humidity
75%
Weather condition
n/a

Description

Capital Region International Airport, formerly known as Lansing Capital City Airport, is a public airport located 5 km northwest of downtown Lansing in DeWitt Township, Michigan.

Climatology

Humid Continental climate (Köppen climate classification Dfb) - Variable weather patterns and a large seasonal temperature variance. Summers are often warm and humid with frequent thunderstorms and winters can be very cold with frequent snowfall and persistent snow cover.

Runways

Designator Length Width Surface Rops
10L/28R 1098 23 ASP Yes/Yes
6/24 1524 37 PEM Yes/Yes
10R/28L 2210 46 ASP Yes/Yes
Airport map: 
Aerial View: 

SKYbrary Partners:

Safety knowledge contributed by: